Time;durP1;ratioP1;P1;durP2;ratioP2;P2;SDS_P1;SDS_P2;PMS_P1;PMS_P2;Temp;Humidity;BMP_temperature;BMP_pressure;BME280_temperature;BME280_humidity;BME280_pressure;Samples;Min_cycle;Max_cycle;Signal;HPM_P1;HPM_P2
2022/08/27 00:01:15;;;;;;;4.85;2.17;;;;;;;16.47;76.23;101643.66;5066830;28;20028;-65
2022/08/27 00:03:43;;;;;;;7.25;2.22;;;;;;;16.43;76.11;101645.81;5069011;28;20048;-65
2022/08/27 00:06:11;;;;;;;6.07;2.13;;;;;;;16.38;76.73;101642.56;5069193;28;20523;-65
2022/08/27 00:08:36;;;;;;;5.43;2.33;;;;;;;16.32;77.29;101646.72;5085816;28;20047;-65
2022/08/27 00:11:01;;;;;;;5.47;2.70;;;;;;;16.24;77.22;101643.72;5071642;28;20032;-65
2022/08/27 00:13:27;;;;;;;4.00;2.05;;;;;;;16.20;77.09;101641.38;5069100;28;20440;-65
2022/08/27 00:15:52;;;;;;;4.82;1.98;;;;;;;16.12;77.22;101642.00;5067836;28;20411;-65
2022/08/27 00:18:19;;;;;;;9.70;2.53;;;;;;;16.03;77.44;101635.38;5049577;28;20488;-65
2022/08/27 00:20:45;;;;;;;8.02;2.38;;;;;;;15.93;77.86;101631.66;5048965;28;20394;-65
2022/08/27 00:23:10;;;;;;;5.40;2.17;;;;;;;15.88;78.46;101636.66;5061896;28;20157;-65
2022/08/27 00:25:36;;;;;;;4.22;2.08;;;;;;;15.80;78.39;101626.31;5068225;28;20036;-67
2022/08/27 00:28:01;;;;;;;4.60;2.35;;;;;;;15.73;78.39;101625.09;5068742;28;20392;-64
2022/08/27 00:30:27;;;;;;;5.90;2.13;;;;;;;15.63;79.40;101634.16;5067642;28;20055;-65
2022/08/27 00:32:52;;;;;;;6.38;2.58;;;;;;;15.55;79.55;101632.91;5067618;28;20483;-65
2022/08/27 00:35:18;;;;;;;4.72;1.98;;;;;;;15.49;79.41;101632.53;5069136;28;20484;-65
2022/08/27 00:37:44;;;;;;;6.07;2.03;;;;;;;15.43;79.85;101627.53;5066757;28;20103;-65
2022/08/27 00:40:14;;;;;;;6.47;2.50;;;;;;;15.37;79.53;101626.16;5067492;28;20046;-66
2022/08/27 00:42:41;;;;;;;8.38;2.20;;;;;;;15.31;79.58;101626.66;5087529;28;20595;-66
2022/08/27 00:45:07;;;;;;;3.83;2.05;;;;;;;15.26;79.82;101631.63;5085059;28;20039;-66
2022/08/27 00:47:36;;;;;;;4.40;2.10;;;;;;;15.23;79.81;101630.00;5067076;28;20501;-65
2022/08/27 00:50:06;;;;;;;5.50;2.45;;;;;;;15.19;79.57;101630.34;5068376;28;20032;-65
2022/08/27 00:52:40;;;;;;;5.55;2.22;;;;;;;15.14;79.71;101629.84;5064431;28;20033;-65
2022/08/27 00:55:08;;;;;;;5.72;2.22;;;;;;;15.09;79.78;101632.97;5067038;28;20663;-66
2022/08/27 00:57:37;;;;;;;4.00;2.00;;;;;;;15.09;80.02;101635.69;5067975;28;20062;-67
2022/08/27 01:00:06;;;;;;;7.95;2.60;;;;;;;15.05;79.74;101636.94;5066895;28;20530;-67
2022/08/27 01:02:31;;;;;;;8.73;2.30;;;;;;;15.03;80.02;101634.31;5066628;28;20120;-67
2022/08/27 01:05:01;;;;;;;6.65;2.28;;;;;;;14.98;80.22;101632.94;5068385;28;20119;-66
2022/08/27 01:07:30;;;;;;;5.60;2.30;;;;;;;14.98;79.94;101632.94;5067112;28;20037;-66
2022/08/27 01:09:58;;;;;;;5.63;2.50;;;;;;;14.93;79.88;101633.31;5066829;28;20357;-66
2022/08/27 01:12:24;;;;;;;2.22;1.88;;;;;;;14.89;80.33;101630.94;5067908;28;20032;-66
2022/08/27 01:14:50;;;;;;;7.38;2.38;;;;;;;14.87;80.29;101625.53;5067440;28;20533;-66
2022/08/27 01:17:16;;;;;;;8.65;2.78;;;;;;;14.86;80.54;101628.41;5065549;28;20031;-66
2022/08/27 01:19:49;;;;;;;4.15;2.33;;;;;;;14.82;79.90;101626.91;5067707;28;20075;-65
2022/08/27 01:22:42;;;;;;;5.18;2.78;;;;;;;14.78;80.36;101629.00;5065738;28;20120;-65
2022/08/27 01:25:10;;;;;;;5.68;2.92;;;;;;;14.75;80.91;101626.53;5066582;28;20506;-65
2022/08/27 01:27:37;;;;;;;5.60;2.30;;;;;;;14.72;80.97;101624.00;5067567;28;20418;-65
2022/08/27 01:30:05;;;;;;;5.18;1.85;;;;;;;14.69;80.75;101624.25;5066533;28;20040;-65
2022/08/27 01:32:32;;;;;;;9.52;2.72;;;;;;;14.67;80.80;101616.16;5066482;28;20498;-65
2022/08/27 01:34:59;;;;;;;5.63;2.40;;;;;;;14.66;80.94;101619.00;5067524;28;20024;-64
2022/08/27 01:37:26;;;;;;;5.70;2.45;;;;;;;14.64;80.72;101618.25;5065761;28;20042;-66
2022/08/27 01:39:54;;;;;;;7.10;2.65;;;;;;;14.61;81.14;101619.38;5080534;28;20035;-68
2022/08/27 01:42:25;;;;;;;6.95;2.33;;;;;;;14.60;80.95;101617.63;5067943;28;20052;-68
2022/08/27 01:44:58;;;;;;;4.03;2.30;;;;;;;14.58;80.89;101616.84;5080514;28;20109;-68
2022/08/27 01:47:25;;;;;;;5.93;2.50;;;;;;;14.58;81.12;101621.47;5064897;28;20051;-65
2022/08/27 01:49:51;;;;;;;4.80;2.53;;;;;;;14.54;81.53;101621.69;5071554;28;20048;-65
2022/08/27 01:52:19;;;;;;;10.23;2.80;;;;;;;14.50;81.33;101622.03;5067106;28;20058;-65
2022/08/27 01:54:46;;;;;;;6.45;2.80;;;;;;;14.44;82.55;101620.63;5065618;28;20025;-67
2022/08/27 01:57:12;;;;;;;3.92;2.90;;;;;;;14.39;82.27;101619.22;5067117;28;20044;-66
2022/08/27 01:59:38;;;;;;;8.63;2.60;;;;;;;14.37;81.71;101613.00;5065949;28;20048;-65
2022/08/27 02:02:04;;;;;;;8.43;2.63;;;;;;;14.36;81.70;101616.72;5064086;28;20054;-65
2022/08/27 02:04:30;;;;;;;5.88;2.90;;;;;;;14.32;81.86;101612.50;5067192;28;20041;-65
2022/08/27 02:06:56;;;;;;;4.90;2.55;;;;;;;14.29;81.81;101613.56;5066396;28;20039;-66
2022/08/27 02:09:22;;;;;;;4.57;2.60;;;;;;;14.25;81.78;101614.78;5064789;28;20127;-65
2022/08/27 02:11:48;;;;;;;7.65;2.63;;;;;;;14.22;81.68;101607.72;5067176;28;20475;-65
2022/08/27 02:14:13;;;;;;;3.33;1.98;;;;;;;14.20;81.61;101606.06;5066703;28;20043;-65
2022/08/27 02:16:39;;;;;;;5.60;2.40;;;;;;;14.18;81.91;101608.06;5073307;28;20399;-67
2022/08/27 02:19:05;;;;;;;4.57;2.60;;;;;;;14.17;81.78;101604.41;5086916;28;20426;-64
2022/08/27 02:21:30;;;;;;;6.93;3.20;;;;;;;14.14;82.42;101612.00;5085636;28;20051;-64
2022/08/27 02:23:56;;;;;;;9.73;2.90;;;;;;;14.11;82.53;101613.09;5065749;28;20488;-65
2022/08/27 02:26:21;;;;;;;4.28;2.50;;;;;;;14.09;81.98;101600.53;5066280;28;20388;-67
2022/08/27 02:28:47;;;;;;;7.03;2.97;;;;;;;14.05;82.26;101599.88;5066981;28;20039;-65
2022/08/27 02:31:13;;;;;;;5.63;3.30;;;;;;;14.05;82.52;101599.88;5063540;28;20016;-67
2022/08/27 02:33:39;;;;;;;5.53;3.20;;;;;;;14.04;82.36;101595.41;5066299;28;20040;-65
2022/08/27 02:36:04;;;;;;;3.20;2.45;;;;;;;14.01;82.26;101598.38;5066273;28;20760;-66
2022/08/27 02:38:30;;;;;;;9.70;2.42;;;;;;;14.01;82.68;101592.91;5064169;28;20044;-65
2022/08/27 02:40:55;;;;;;;10.25;2.90;;;;;;;13.99;82.59;101589.41;5065012;28;20387;-65
2022/08/27 02:43:20;;;;;;;12.52;3.10;;;;;;;13.97;83.64;101596.84;5066928;28;20052;-65
2022/08/27 02:45:46;;;;;;;5.63;2.70;;;;;;;13.95;82.09;101588.75;5064102;28;20025;-65
2022/08/27 02:48:12;;;;;;;6.03;3.00;;;;;;;13.96;82.46;101592.38;5065036;28;20072;-66
2022/08/27 02:50:37;;;;;;;6.38;3.80;;;;;;;13.96;82.53;101586.91;5066240;28;20048;-65
2022/08/27 02:53:04;;;;;;;6.15;2.88;;;;;;;13.96;82.63;101592.38;5062530;28;20083;-65
2022/08/27 02:55:31;;;;;;;8.75;3.40;;;;;;;13.97;82.62;101594.97;5065091;28;20067;-65
2022/08/27 02:57:57;;;;;;;4.20;3.17;;;;;;;14.00;82.82;101594.75;5065927;28;20154;-67
2022/08/27 03:00:24;;;;;;;4.75;2.78;;;;;;;14.00;82.57;101591.16;5064564;28;20040;-66
2022/08/27 03:02:50;;;;;;;4.57;3.35;;;;;;;14.02;82.88;101597.38;5060561;28;20061;-67
2022/08/27 03:05:17;;;;;;;5.60;3.03;;;;;;;13.99;82.79;101593.03;5046211;28;20036;-65
2022/08/27 03:07:43;;;;;;;5.88;3.33;;;;;;;13.99;83.26;101597.63;5043634;28;20083;-65
2022/08/27 03:10:10;;;;;;;7.15;3.58;;;;;;;14.02;83.06;101598.25;5062164;28;20047;-66
2022/08/27 03:12:36;;;;;;;6.28;3.05;;;;;;;14.04;83.13;101599.03;5065785;28;20043;-64
2022/08/27 03:15:04;;;;;;;6.53;2.90;;;;;;;14.02;82.74;101598.25;5064533;28;20047;-64
2022/08/27 03:20:13;;;;;;;4.32;2.80;;;;;;;14.04;83.16;101598.16;5065950;28;20032;-65
2022/08/27 03:22:39;;;;;;;5.82;3.15;;;;;;;14.03;83.08;101602.75;5063906;28;20044;-66
2022/08/27 03:25:05;;;;;;;4.88;3.13;;;;;;;14.06;83.21;101598.88;5064366;28;20136;-65
2022/08/27 03:27:31;;;;;;;6.95;2.97;;;;;;;14.07;83.44;101600.63;5065625;28;20074;-64
2022/08/27 03:29:56;;;;;;;8.00;3.08;;;;;;;14.04;83.51;101596.28;5065741;28;20036;-66
2022/08/27 03:32:22;;;;;;;7.82;3.38;;;;;;;14.06;83.49;101600.75;5062673;28;20056;-65
2022/08/27 03:34:47;;;;;;;10.35;3.08;;;;;;;14.06;83.82;101595.28;5066344;28;20068;-65
2022/08/27 03:37:12;;;;;;;4.22;3.28;;;;;;;14.03;83.97;101591.81;5064369;28;20167;-65
2022/08/27 03:39:38;;;;;;;9.07;3.10;;;;;;;14.02;83.37;101595.50;5063107;28;20036;-65
2022/08/27 03:42:03;;;;;;;6.07;3.70;;;;;;;14.01;83.30;101598.38;5065112;28;20033;-65
2022/08/27 03:44:30;;;;;;;6.25;3.47;;;;;;;13.99;83.62;101598.50;5065669;28;20064;-65
2022/08/27 03:46:56;;;;;;;6.93;3.35;;;;;;;14.01;83.53;101603.84;5063249;28;20484;-65
2022/08/27 03:49:22;;;;;;;8.15;4.20;;;;;;;14.01;84.10;101607.44;5065689;28;20039;-68
2022/08/27 03:51:49;;;;;;;4.82;3.60;;;;;;;13.96;83.54;101606.91;5064224;28;20090;-65
2022/08/27 03:54:15;;;;;;;6.13;3.78;;;;;;;13.94;83.43;101608.00;5063521;28;20079;-65
2022/08/27 03:56:40;;;;;;;5.10;2.92;;;;;;;13.90;83.05;101606.50;5065086;28;20119;-65
2022/08/27 03:59:06;;;;;;;4.13;2.80;;;;;;;13.86;83.57;101605.00;5063253;28;20033;-65
2022/08/27 04:01:31;;;;;;;6.95;3.17;;;;;;;13.83;82.86;101605.19;5062980;28;20033;-65
2022/08/27 04:03:57;;;;;;;3.60;3.03;;;;;;;13.80;83.28;101603.56;5064958;28;20045;-65
2022/08/27 04:06:22;;;;;;;6.97;3.58;;;;;;;13.79;83.49;101601.81;5065259;28;20403;-65
2022/08/27 04:08:48;;;;;;;7.15;3.88;;;;;;;13.79;83.93;101610.03;5064071;28;20041;-65
2022/08/27 04:11:14;;;;;;;6.63;3.72;;;;;;;13.80;83.46;101603.56;5063944;28;20037;-65
2022/08/27 04:13:39;;;;;;;5.07;3.50;;;;;;;13.83;83.51;101607.94;5065113;28;20223;-65
2022/08/27 04:16:05;;;;;;;6.00;3.17;;;;;;;13.84;83.91;101599.59;5062766;28;20476;-65
2022/08/27 04:18:31;;;;;;;7.18;3.75;;;;;;;13.84;83.77;101599.59;5062646;28;20032;-65
2022/08/27 04:20:57;;;;;;;6.30;3.47;;;;;;;13.83;83.42;101599.72;5064999;28;20132;-65
2022/08/27 04:23:22;;;;;;;7.15;3.63;;;;;;;13.80;83.82;101598.09;5063875;28;20047;-65
2022/08/27 04:25:48;;;;;;;6.38;3.63;;;;;;;13.78;84.18;101595.47;5064591;28;20158;-65
2022/08/27 04:28:14;;;;;;;7.32;4.28;;;;;;;13.76;84.57;101599.34;5065010;28;20031;-65
2022/08/27 04:30:43;;;;;;;7.57;3.90;;;;;;;13.73;84.28;101592.22;5062008;28;20140;-64
2022/08/27 04:33:09;;;;;;;6.18;3.75;;;;;;;13.70;84.46;101603.38;5049919;28;20400;-65
2022/08/27 04:35:35;;;;;;;8.23;4.10;;;;;;;13.67;84.65;101600.88;5048685;28;20128;-65
2022/08/27 04:38:00;;;;;;;5.72;3.17;;;;;;;13.66;84.13;101598.22;5054739;28;20242;-65
2022/08/27 04:41:18;;;;;;;5.05;3.15;;;;;;;13.64;84.85;101605.69;5066478;28;20347;-66
2022/08/27 04:43:13;;;;;;;7.57;3.97;;;;;;;13.65;84.81;101607.44;5068330;28;20143;-65
2022/08/27 04:45:47;;;;;;;6.72;3.75;;;;;;;13.61;85.13;101614.97;5065249;28;20037;-66
2022/08/27 04:48:14;;;;;;;8.48;3.90;;;;;;;13.57;85.13;101616.22;5067318;28;20068;-64
2022/08/27 04:50:42;;;;;;;7.95;3.83;;;;;;;13.61;85.25;101612.25;5068123;28;20024;-65
2022/08/27 04:53:09;;;;;;;7.55;3.75;;;;;;;13.66;85.21;101620.09;5066741;28;20177;-66
2022/08/27 04:55:40;;;;;;;5.93;3.78;;;;;;;13.71;85.78;101612.47;5067190;28;20426;-65
2022/08/27 04:58:05;;;;;;;7.43;3.55;;;;;;;13.75;85.25;101608.50;5068235;28;20063;-65
2022/08/27 05:00:32;;;;;;;5.78;3.60;;;;;;;13.81;85.78;101615.41;5066345;28;20435;-65
2022/08/27 05:02:57;;;;;;;7.05;3.55;;;;;;;13.83;85.61;101611.53;5066752;28;20062;-66
2022/08/27 05:05:26;;;;;;;7.45;3.55;;;;;;;13.91;85.06;101613.72;5060776;28;20075;-64
2022/08/27 05:07:51;;;;;;;7.35;3.90;;;;;;;13.95;85.79;101616.13;5064033;28;20043;-68
2022/08/27 05:10:16;;;;;;;7.93;3.67;;;;;;;13.99;85.46;101622.25;5067098;28;20681;-64
2022/08/27 05:12:42;;;;;;;7.35;3.72;;;;;;;14.05;85.03;101616.31;5067786;28;20040;-65
2022/08/27 05:15:08;;;;;;;12.93;4.25;;;;;;;14.09;85.27;101619.69;5065735;28;20778;-65
2022/08/27 05:17:33;;;;;;;4.95;3.50;;;;;;;14.13;85.57;101622.09;5046961;28;20107;-65
2022/08/27 05:19:58;;;;;;;7.75;4.63;;;;;;;14.18;85.54;101616.25;5046966;28;20535;-65
2022/08/27 05:22:24;;;;;;;7.63;4.80;;;;;;;14.19;85.59;101618.88;5046193;28;20449;-65
2022/08/27 05:24:49;;;;;;;11.88;4.95;;;;;;;14.25;85.75;101617.53;5054094;28;20067;-66
2022/08/27 05:27:14;;;;;;;5.70;4.07;;;;;;;14.30;85.45;101610.72;5051779;28;20481;-65
2022/08/27 05:29:40;;;;;;;9.43;4.47;;;;;;;14.36;85.99;101614.88;5054303;28;20029;-65
2022/08/27 05:32:08;;;;;;;9.65;4.43;;;;;;;14.42;85.48;101619.00;5050023;28;20441;-65
2022/08/27 05:34:33;;;;;;;7.47;4.88;;;;;;;14.48;86.04;101619.44;5064357;28;20115;-65
2022/08/27 05:36:59;;;;;;;11.00;5.00;;;;;;;14.54;86.17;101618.94;5065838;28;20035;-64
2022/08/27 05:39:24;;;;;;;7.80;5.20;;;;;;;14.61;85.62;101626.72;5061437;28;20114;-65
2022/08/27 05:41:51;;;;;;;9.32;4.65;;;;;;;14.68;85.47;101625.22;5066432;28;20115;-65
2022/08/27 05:44:17;;;;;;;7.68;4.30;;;;;;;14.76;85.69;101625.53;5065635;28;20036;-65
2022/08/27 05:46:42;;;;;;;10.20;4.60;;;;;;;14.86;86.17;101620.19;5061780;28;20110;-65
2022/08/27 05:49:08;;;;;;;9.85;4.82;;;;;;;14.93;85.76;101626.94;5065909;28;20046;-65
2022/08/27 05:51:36;;;;;;;11.27;5.60;;;;;;;15.00;85.89;101626.34;5063720;28;20032;-65
2022/08/27 05:54:05;;;;;;;8.30;4.85;;;;;;;15.09;86.65;101626.59;5056503;28;20044;-65
2022/08/27 05:56:34;;;;;;;10.15;5.03;;;;;;;15.17;85.77;101627.75;5055016;28;20533;-67
2022/08/27 06:01:46;;;;;;;7.90;5.10;;;;;;;15.31;84.81;101627.53;5056056;28;20165;-64
2022/08/27 06:04:14;;;;;;;11.00;6.05;;;;;;;15.40;85.53;101625.91;5058488;28;20048;-65
2022/08/27 06:06:41;;;;;;;8.68;5.05;;;;;;;15.46;85.80;101630.91;5062949;28;20482;-65
2022/08/27 06:09:08;;;;;;;7.95;5.15;;;;;;;15.50;85.02;101637.88;5057908;28;20029;-65
2022/08/27 06:11:35;;;;;;;15.13;5.28;;;;;;;15.55;85.79;101632.03;5058271;28;20029;-65
2022/08/27 06:14:01;;;;;;;10.80;5.70;;;;;;;15.62;85.11;101640.63;5065022;28;20040;-65
2022/08/27 06:16:26;;;;;;;11.82;5.70;;;;;;;15.67;86.07;101647.53;5063606;28;20043;-65
2022/08/27 06:18:53;;;;;;;11.73;5.80;;;;;;;15.72;85.03;101648.03;5066300;28;20032;-66
2022/08/27 06:21:21;;;;;;;8.73;5.20;;;;;;;15.76;84.92;101641.31;5063249;28;20029;-65
2022/08/27 06:23:46;;;;;;;9.93;5.50;;;;;;;15.79;85.70;101638.28;5060875;28;20044;-68
2022/08/27 06:26:15;;;;;;;10.00;5.47;;;;;;;15.84;84.64;101645.28;5057929;28;20033;-65
2022/08/27 06:28:40;;;;;;;11.95;5.63;;;;;;;15.89;84.48;101646.63;5058542;28;20449;-65
2022/08/27 06:31:12;;;;;;;11.75;5.95;;;;;;;15.92;84.41;101643.66;5054049;28;20029;-66
2022/08/27 06:33:39;;;;;;;12.45;6.13;;;;;;;15.92;83.88;101638.16;5057926;28;20033;-65
2022/08/27 06:36:08;;;;;;;10.10;5.65;;;;;;;16.01;84.08;101642.03;5063115;28;20107;-65
2022/08/27 06:38:34;;;;;;;11.48;5.68;;;;;;;16.07;84.70;101642.38;5058160;28;20116;-65
2022/08/27 06:40:59;;;;;;;9.48;5.05;;;;;;;16.16;84.74;101640.75;5057823;28;20769;-65
2022/08/27 06:43:25;;;;;;;8.35;5.13;;;;;;;16.20;84.10;101636.75;5061956;28;20044;-65
2022/08/27 06:45:51;;;;;;;12.27;5.50;;;;;;;16.30;84.06;101645.94;5059345;28;20070;-65
2022/08/27 06:48:17;;;;;;;10.93;5.18;;;;;;;16.37;82.80;101643.59;5065152;28;20748;-64
2022/08/27 06:50:43;;;;;;;14.25;5.45;;;;;;;16.40;83.15;101640.56;5064952;28;20123;-65
2022/08/27 06:53:09;;;;;;;14.48;5.32;;;;;;;16.43;82.86;101639.44;5065508;28;20037;-65
2022/08/27 06:55:43;;;;;;;11.07;5.65;;;;;;;16.53;83.82;101641.25;5064543;28;20028;-64
2022/08/27 06:58:09;;;;;;;10.52;5.85;;;;;;;16.55;82.52;101649.38;5065089;28;20068;-65
2022/08/27 07:00:35;;;;;;;10.38;5.35;;;;;;;16.61;81.52;101646.13;5064091;28;20365;-65
2022/08/27 07:03:04;;;;;;;11.75;4.93;;;;;;;16.71;81.32;101640.72;5065029;28;20083;-65
2022/08/27 07:05:30;;;;;;;10.50;5.55;;;;;;;16.76;81.76;101642.09;5062527;28;20328;-66
2022/08/27 07:07:56;;;;;;;6.93;4.47;;;;;;;16.82;81.51;101641.53;5063908;28;20060;-64
2022/08/27 07:10:22;;;;;;;8.73;5.20;;;;;;;16.86;80.08;101644.91;5065083;28;20390;-68
2022/08/27 07:12:47;;;;;;;10.25;5.00;;;;;;;16.98;80.21;101656.75;5062126;28;20043;-65
2022/08/27 07:15:12;;;;;;;9.15;5.47;;;;;;;17.05;80.80;101650.56;5059246;28;20454;-65
2022/08/27 07:17:39;;;;;;;13.32;5.00;;;;;;;17.11;79.09;101651.88;5062799;28;20036;-65
2022/08/27 07:20:06;;;;;;;10.05;4.93;;;;;;;17.20;79.76;101648.34;5059580;28;20387;-65
2022/08/27 07:22:31;;;;;;;8.27;4.43;;;;;;;17.26;78.52;101644.19;5055602;28;20052;-64
2022/08/27 07:24:56;;;;;;;8.82;4.47;;;;;;;17.38;78.43;101651.34;5057477;28;20043;-66
2022/08/27 07:27:22;;;;;;;9.05;4.88;;;;;;;17.47;78.53;101658.78;5057848;28;20032;-67
2022/08/27 07:29:48;;;;;;;8.48;4.93;;;;;;;17.45;78.08;101657.19;5057532;28;20040;-66
2022/08/27 07:32:13;;;;;;;9.27;4.85;;;;;;;17.44;76.48;101667.34;5055153;28;20017;-65
2022/08/27 07:34:38;;;;;;;10.23;4.47;;;;;;;17.55;76.80;101660.88;5059148;28;20392;-64
2022/08/27 07:37:04;;;;;;;7.43;4.60;;;;;;;17.65;77.93;101658.16;5064174;28;20096;-65
2022/08/27 07:39:29;;;;;;;7.80;3.80;;;;;;;17.70;76.97;101665.00;5061214;28;20037;-64
2022/08/27 07:44:40;;;;;;;7.95;4.70;;;;;;;17.70;74.44;101659.50;5064005;28;20458;-64
2022/08/27 07:47:06;;;;;;;11.55;4.43;;;;;;;17.59;74.78;101660.47;5063038;28;20119;-65
2022/08/27 07:49:34;;;;;;;7.85;3.83;;;;;;;17.71;74.80;101666.72;5052500;28;20403;-66
2022/08/27 07:52:00;;;;;;;10.52;3.95;;;;;;;17.83;74.68;101660.16;5063979;28;20040;-64
2022/08/27 07:54:25;;;;;;;11.23;4.38;;;;;;;17.84;72.78;101667.41;5058558;28;20346;-65
2022/08/27 07:56:51;;;;;;;10.45;4.05;;;;;;;17.76;73.35;101661.72;5064404;28;20047;-65
2022/08/27 07:59:17;;;;;;;10.68;3.97;;;;;;;17.79;74.46;101677.97;5061730;28;20028;-65
2022/08/27 08:01:42;;;;;;;5.18;3.45;;;;;;;17.76;71.43;101674.59;5059078;28;20033;-66
2022/08/27 08:04:08;;;;;;;9.80;4.00;;;;;;;17.67;72.11;101676.28;5065080;28;20028;-64
2022/08/27 08:06:37;;;;;;;10.00;4.25;;;;;;;17.58;72.46;101674.38;5059017;28;20142;-66
2022/08/27 08:09:03;;;;;;;8.15;4.03;;;;;;;17.61;72.92;101671.31;5058805;28;20493;-65
2022/08/27 08:11:29;;;;;;;10.90;4.63;;;;;;;17.64;73.26;101675.69;5063452;28;20413;-65
2022/08/27 08:13:54;;;;;;;7.03;4.00;;;;;;;17.62;71.85;101667.56;5046693;28;20063;-65
2022/08/27 08:16:23;;;;;;;10.93;4.15;;;;;;;17.62;72.61;101674.94;5064120;28;20038;-64
2022/08/27 08:18:49;;;;;;;10.25;4.70;;;;;;;17.59;71.72;101667.84;5066815;28;20036;-64
2022/08/27 08:21:14;;;;;;;12.38;4.53;;;;;;;17.84;72.62;101669.28;5059544;28;20046;-65
2022/08/27 08:23:41;;;;;;;7.75;4.40;;;;;;;18.04;70.74;101670.25;5056808;28;20072;-65
2022/08/27 08:26:07;;;;;;;6.63;4.18;;;;;;;18.34;71.28;101672.09;5063612;28;20040;-64
2022/08/27 08:28:33;;;;;;;12.48;5.10;;;;;;;18.46;70.56;101670.06;5059697;28;20123;-66
2022/08/27 08:30:58;;;;;;;13.27;5.05;;;;;;;18.43;68.87;101667.63;5060065;28;20031;-64
2022/08/27 08:33:24;;;;;;;9.30;4.90;;;;;;;18.43;70.00;101668.47;5059284;28;20076;-64
2022/08/27 08:35:50;;;;;;;8.70;4.78;;;;;;;18.52;68.58;101675.03;5060470;28;20028;-68
2022/08/27 08:38:17;;;;;;;8.07;4.20;;;;;;;18.93;69.86;101678.56;5062326;28;20051;-68
2022/08/27 08:40:48;;;;;;;6.60;3.38;;;;;;;19.06;66.25;101671.72;5061869;28;20044;-66
2022/08/27 08:43:32;;;;;;;7.93;3.67;;;;;;;19.45;68.84;101668.06;5058335;28;20056;-68
2022/08/27 08:46:21;;;;;;;7.97;3.00;;;;;;;19.66;64.94;101666.00;5063767;28;20032;-66
2022/08/27 08:48:50;;;;;;;4.63;2.60;;;;;;;19.79;63.27;101669.28;5060318;28;20431;-66
2022/08/27 08:51:39;;;;;;;6.88;2.67;;;;;;;20.17;64.44;101670.13;5062914;28;20047;-66
2022/08/27 08:54:14;;;;;;;4.97;2.20;;;;;;;20.34;61.14;101676.75;5060564;28;20036;-64
2022/08/27 08:56:51;;;;;;;7.15;2.78;;;;;;;20.66;60.26;101664.31;5060414;28;20426;-64
2022/08/27 08:59:40;;;;;;;8.10;2.50;;;;;;;20.81;57.56;101671.94;5060665;28;20484;-65
2022/08/27 09:02:08;;;;;;;7.53;2.10;;;;;;;20.63;57.01;101680.22;5060067;28;20732;-64
2022/08/27 09:04:34;;;;;;;7.70;1.85;;;;;;;20.78;59.59;101671.38;5060342;28;20048;-65
2022/08/27 09:07:07;;;;;;;6.30;2.40;;;;;;;20.83;56.45;101682.81;5061192;28;20417;-64
2022/08/27 09:09:44;;;;;;;5.60;2.53;;;;;;;20.74;58.74;101672.69;5059152;28;20086;-66
2022/08/27 09:12:15;;;;;;;5.53;2.10;;;;;;;20.81;61.00;101682.13;5062596;28;20089;-67
2022/08/27 09:14:50;;;;;;;6.85;2.22;;;;;;;20.91;58.62;101680.16;5063284;28;20426;-68
2022/08/27 09:17:16;;;;;;;4.95;2.00;;;;;;;20.83;56.73;101686.47;5059845;28;20040;-65
2022/08/27 09:19:42;;;;;;;4.78;1.92;;;;;;;20.98;57.22;101689.53;5061169;28;20415;-67
2022/08/27 09:22:23;;;;;;;4.28;2.10;;;;;;;21.05;57.23;101687.88;5061585;28;20032;-64
2022/08/27 09:25:13;;;;;;;4.53;1.85;;;;;;;21.21;59.58;101683.50;5060793;28;20117;-65
2022/08/27 09:27:41;;;;;;;3.72;1.95;;;;;;;21.06;56.13;101688.75;5056705;28;20029;-67
2022/08/27 09:30:10;;;;;;;6.85;2.10;;;;;;;20.95;56.21;101680.72;5061064;28;20036;-68
2022/08/27 09:32:38;;;;;;;7.32;2.00;;;;;;;20.96;55.70;101683.31;5060661;28;20021;-65
2022/08/27 09:35:06;;;;;;;4.88;2.15;;;;;;;20.95;57.70;101683.47;5060437;28;20558;-66
2022/08/27 09:37:39;;;;;;;7.13;2.45;;;;;;;20.99;59.39;101680.22;5059421;28;20044;-65
2022/08/27 09:40:10;;;;;;;6.88;2.70;;;;;;;21.20;59.89;101682.66;5057805;28;20071;-65
2022/08/27 09:42:45;;;;;;;5.97;1.83;;;;;;;21.20;56.76;101677.13;5064368;28;20591;-64
2022/08/27 09:45:14;;;;;;;7.07;2.33;;;;;;;21.39;58.75;101682.47;5059867;28;20060;-68
2022/08/27 09:47:47;;;;;;;6.20;2.05;;;;;;;21.58;55.61;101681.41;5061179;28;20032;-67
2022/08/27 09:50:16;;;;;;;5.18;2.33;;;;;;;21.89;54.63;101681.78;5055209;28;20036;-65
2022/08/27 09:52:57;;;;;;;7.68;2.90;;;;;;;22.00;56.00;101691.69;5058272;28;20037;-64
2022/08/27 09:55:33;;;;;;;6.97;2.20;;;;;;;21.98;53.79;101688.25;5063750;28;20548;-66
2022/08/27 09:58:00;;;;;;;7.45;2.20;;;;;;;22.39;55.15;101681.00;5053928;28;20119;-65
2022/08/27 10:00:39;;;;;;;6.25;1.92;;;;;;;22.71;53.72;101679.38;5064474;28;20067;-66
2022/08/27 10:03:07;;;;;;;4.80;2.30;;;;;;;22.82;50.24;101676.25;5061510;28;20091;-66
2022/08/27 10:05:49;;;;;;;4.82;2.30;;;;;;;22.78;50.65;101676.78;5065870;28;20071;-65
2022/08/27 10:08:27;;;;;;;;;;;;;;;22.86;53.83;101685.13;5062827;28;20040;-66
2022/08/27 10:11:12;;;;;;;3.30;1.90;;;;;;;22.96;53.35;101680.31;5057026;28;20315;-65
2022/08/27 10:13:50;;;;;;;6.38;2.50;;;;;;;23.10;52.87;101681.53;5065247;28;20059;-69
2022/08/27 10:16:37;;;;;;;4.45;2.40;;;;;;;23.06;50.41;101677.34;5064543;28;20032;-65
2022/08/27 10:19:24;;;;;;;5.40;2.17;;;;;;;22.97;53.69;101672.84;5065910;28;20345;-65
2022/08/27 10:22:07;;;;;;;7.63;2.13;;;;;;;22.85;52.33;101669.50;5060844;28;20048;-65
2022/08/27 10:24:45;;;;;;;3.42;2.20;;;;;;;22.55;51.73;101676.53;5065338;28;20036;-65
2022/08/27 10:27:32;;;;;;;3.58;1.80;;;;;;;22.46;53.76;101672.00;5065912;28;20040;-64
2022/08/27 10:30:12;;;;;;;6.32;2.13;;;;;;;22.26;52.76;101677.84;5065157;28;20447;-65
2022/08/27 10:33:38;;;;;;;6.68;2.70;;;;;;;22.28;55.07;101678.53;5064511;28;20044;-66
2022/08/27 10:36:29;;;;;;;6.05;1.70;;;;;;;22.25;53.62;101675.25;5043319;28;20044;-65
2022/08/27 10:39:44;;;;;;;4.95;2.30;;;;;;;22.22;54.31;101670.88;5063898;28;20040;-65
2022/08/27 10:42:13;;;;;;;5.00;1.98;;;;;;;22.24;54.19;101668.81;5045597;28;20519;-65
2022/08/27 10:45:05;;;;;;;3.85;1.83;;;;;;;22.29;53.79;101679.38;5050799;28;20037;-65
2022/08/27 10:48:05;;;;;;;5.00;1.70;;;;;;;22.26;53.49;101677.84;5063162;28;20040;-65
2022/08/27 10:50:53;;;;;;;5.65;1.65;;;;;;;22.22;54.33;101670.88;5052154;28;20063;-64
2022/08/27 10:53:38;;;;;;;3.50;1.77;;;;;;;22.24;53.65;101670.72;5065267;28;20033;-65
2022/08/27 10:56:25;;;;;;;3.78;1.67;;;;;;;22.36;54.08;101663.84;5059178;28;20131;-64
2022/08/27 10:59:09;;;;;;;26.52;5.78;;;;;;;22.44;52.27;101654.69;5056564;28;20048;-66
2022/08/27 11:01:49;;;;;;;6.95;2.00;;;;;;;22.26;51.78;101663.97;5060762;28;20044;-65
2022/08/27 11:04:21;;;;;;;5.07;1.88;;;;;;;22.09;52.14;101663.00;5061611;28;20040;-67
2022/08/27 11:06:56;;;;;;;5.78;1.98;;;;;;;22.26;52.04;101661.22;5059400;28;20081;-63
2022/08/27 11:09:49;;;;;;;5.15;2.10;;;;;;;22.24;53.40;101666.03;5063902;28;20040;-67
2022/08/27 11:12:24;;;;;;;7.40;1.70;;;;;;;22.15;52.02;101665.16;5061395;28;20162;-65
2022/08/27 11:15:04;;;;;;;3.03;1.70;;;;;;;22.33;52.66;101661.38;5062192;28;20522;-62
2022/08/27 11:17:35;;;;;;;5.28;1.92;;;;;;;22.17;51.99;101659.44;5059638;28;20047;-62
2022/08/27 11:20:09;;;;;;;2.97;1.50;;;;;;;21.94;51.78;101655.50;5059608;28;20062;-64
2022/08/27 11:22:40;;;;;;;5.75;1.73;;;;;;;21.96;52.72;101654.28;5061099;28;20033;-63
2022/08/27 11:25:21;;;;;;;5.27;1.70;;;;;;;22.16;54.15;101657.72;5059936;28;20043;-63
2022/08/27 11:27:50;;;;;;;5.28;1.52;;;;;;;22.22;51.97;101654.25;5064188;28;20107;-61
2022/08/27 11:30:30;;;;;;;5.22;1.88;;;;;;;22.13;53.15;101652.47;5063578;28;20028;-66
2022/08/27 11:33:14;;;;;;;2.53;1.45;;;;;;;22.04;52.58;101650.69;5056095;28;20097;-62
2022/08/27 11:36:05;;;;;;;6.07;1.73;;;;;;;21.99;51.38;101653.09;5065422;28;20036;-62
2022/08/27 11:38:51;;;;;;;3.88;1.50;;;;;;;22.05;53.40;101655.19;5064154;28;20067;-63
2022/08/27 11:41:35;;;;;;;6.20;1.55;;;;;;;22.19;51.91;101656.47;5053054;28;20156;-64
2022/08/27 11:44:01;;;;;;;4.82;1.38;;;;;;;22.04;51.17;101646.00;5068180;28;20484;-63